sensor_id;sensor_type;location;lat;lon;timestamp;pressure;altitude;pressure_sealevel;temperature;humidity
48553;BME280;34335;51.566;6.994;2023-02-15T00:00:52;102344.03;;;2.39;100.00
48553;BME280;34335;51.566;6.994;2023-02-15T00:03:20;102339.22;;;2.30;100.00
48553;BME280;34335;51.566;6.994;2023-02-15T00:05:45;102333.63;;;2.22;100.00
48553;BME280;34335;51.566;6.994;2023-02-15T00:08:10;102328.31;;;2.19;100.00
48553;BME280;34335;51.566;6.994;2023-02-15T00:10:36;102331.41;;;2.13;100.00
48553;BME280;34335;51.566;6.994;2023-02-15T00:13:01;102321.75;;;2.24;100.00
48553;BME280;34335;51.566;6.994;2023-02-15T00:15:26;102321.38;;;2.03;100.00
48553;BME280;34335;51.566;6.994;2023-02-15T00:17:52;102325.81;;;2.06;100.00
48553;BME280;34335;51.566;6.994;2023-02-15T00:20:17;102321.84;;;2.11;100.00
48553;BME280;34335;51.566;6.994;2023-02-15T00:22:44;102322.50;;;1.93;100.00
48553;BME280;34335;51.566;6.994;2023-02-15T00:25:09;102326.03;;;1.95;100.00
48553;BME280;34335;51.566;6.994;2023-02-15T00:27:34;102328.38;;;2.06;100.00
48553;BME280;34335;51.566;6.994;2023-02-15T00:30:00;102328.28;;;2.04;100.00
48553;BME280;34335;51.566;6.994;2023-02-15T00:32:25;102326.28;;;1.85;100.00
48553;BME280;34335;51.566;6.994;2023-02-15T00:34:50;102321.34;;;1.88;100.00
48553;BME280;34335;51.566;6.994;2023-02-15T00:37:15;102324.34;;;1.81;100.00
48553;BME280;34335;51.566;6.994;2023-02-15T00:39:41;102316.16;;;1.73;100.00
48553;BME280;34335;51.566;6.994;2023-02-15T00:42:06;102316.75;;;1.69;100.00
48553;BME280;34335;51.566;6.994;2023-02-15T00:44:31;102315.09;;;1.69;100.00
48553;BME280;34335;51.566;6.994;2023-02-15T00:46:57;102318.34;;;1.67;100.00
48553;BME280;34335;51.566;6.994;2023-02-15T00:49:22;102318.75;;;1.60;100.00
48553;BME280;34335;51.566;6.994;2023-02-15T00:51:47;102315.22;;;1.58;100.00
48553;BME280;34335;51.566;6.994;2023-02-15T00:54:12;102313.75;;;1.61;100.00
48553;BME280;34335;51.566;6.994;2023-02-15T00:56:38;102310.41;;;1.49;100.00
48553;BME280;34335;51.566;6.994;2023-02-15T00:59:03;102318.09;;;1.49;100.00
48553;BME280;34335;51.566;6.994;2023-02-15T01:01:28;102312.47;;;1.54;100.00
48553;BME280;34335;51.566;6.994;2023-02-15T01:03:54;102312.31;;;1.38;100.00
48553;BME280;34335;51.566;6.994;2023-02-15T01:06:19;102309.13;;;1.42;100.00
48553;BME280;34335;51.566;6.994;2023-02-15T01:08:45;102310.53;;;1.37;100.00
48553;BME280;34335;51.566;6.994;2023-02-15T01:11:13;102304.13;;;1.44;100.00
48553;BME280;34335;51.566;6.994;2023-02-15T01:13:39;102306.09;;;1.76;100.00
48553;BME280;34335;51.566;6.994;2023-02-15T01:16:05;102300.66;;;1.43;100.00
48553;BME280;34335;51.566;6.994;2023-02-15T01:18:32;102303.84;;;1.26;100.00
48553;BME280;34335;51.566;6.994;2023-02-15T01:20:57;102303.84;;;1.39;100.00
48553;BME280;34335;51.566;6.994;2023-02-15T01:23:23;102304.41;;;1.35;100.00
48553;BME280;34335;51.566;6.994;2023-02-15T01:25:48;102308.41;;;1.16;100.00
48553;BME280;34335;51.566;6.994;2023-02-15T01:28:14;102306.81;;;1.18;100.00
48553;BME280;34335;51.566;6.994;2023-02-15T01:30:39;102298.34;;;1.06;100.00
48553;BME280;34335;51.566;6.994;2023-02-15T01:33:05;102296.19;;;0.99;100.00
48553;BME280;34335;51.566;6.994;2023-02-15T01:35:30;102299.34;;;0.95;100.00
48553;BME280;34335;51.566;6.994;2023-02-15T01:37:56;102290.84;;;0.96;100.00
48553;BME280;34335;51.566;6.994;2023-02-15T01:40:21;102292.13;;;0.89;100.00
48553;BME280;34335;51.566;6.994;2023-02-15T01:42:53;102296.38;;;0.88;100.00
48553;BME280;34335;51.566;6.994;2023-02-15T01:45:26;102292.25;;;0.90;100.00
48553;BME280;34335;51.566;6.994;2023-02-15T01:48:04;102287.09;;;1.04;100.00
48553;BME280;34335;51.566;6.994;2023-02-15T01:50:38;102293.13;;;1.04;100.00
48553;BME280;34335;51.566;6.994;2023-02-15T01:53:13;102292.06;;;0.87;100.00
48553;BME280;34335;51.566;6.994;2023-02-15T01:55:55;102284.47;;;0.75;100.00
48553;BME280;34335;51.566;6.994;2023-02-15T01:58:22;102281.50;;;0.69;100.00
48553;BME280;34335;51.566;6.994;2023-02-15T02:00:50;102280.41;;;0.66;100.00
48553;BME280;34335;51.566;6.994;2023-02-15T02:03:15;102273.22;;;0.60;100.00
48553;BME280;34335;51.566;6.994;2023-02-15T02:05:41;102269.47;;;0.68;100.00
48553;BME280;34335;51.566;6.994;2023-02-15T02:08:07;102285.13;;;0.73;100.00
48553;BME280;34335;51.566;6.994;2023-02-15T02:10:34;102279.13;;;0.59;100.00
48553;BME280;34335;51.566;6.994;2023-02-15T02:13:03;102266.63;;;0.50;100.00
48553;BME280;34335;51.566;6.994;2023-02-15T02:15:47;102267.03;;;0.43;100.00
48553;BME280;34335;51.566;6.994;2023-02-15T02:19:31;102261.59;;;0.38;100.00
48553;BME280;34335;51.566;6.994;2023-02-15T02:27:29;102256.78;;;0.43;100.00
48553;BME280;34335;51.566;6.994;2023-02-15T02:33:14;102246.72;;;0.46;100.00
48553;BME280;34335;51.566;6.994;2023-02-15T02:36:29;102247.00;;;0.24;100.00
48553;BME280;34335;51.566;6.994;2023-02-15T02:38:48;102235.38;;;0.15;100.00
48553;BME280;34335;51.566;6.994;2023-02-15T02:43:59;102225.41;;;0.07;100.00
48553;BME280;34335;51.566;6.994;2023-02-15T02:46:36;102228.38;;;0.13;100.00
48553;BME280;34335;51.566;6.994;2023-02-15T02:49:02;102222.75;;;0.05;100.00
48553;BME280;34335;51.566;6.994;2023-02-15T02:51:27;102226.59;;;0.12;100.00
48553;BME280;34335;51.566;6.994;2023-02-15T02:53:55;102220.72;;;0.13;100.00
48553;BME280;34335;51.566;6.994;2023-02-15T02:56:32;102218.59;;;-0.06;100.00
48553;BME280;34335;51.566;6.994;2023-02-15T02:59:09;102216.72;;;-0.09;100.00
48553;BME280;34335;51.566;6.994;2023-02-15T03:01:46;102217.28;;;-0.13;100.00
48553;BME280;34335;51.566;6.994;2023-02-15T03:04:19;102213.31;;;-0.21;100.00
48553;BME280;34335;51.566;6.994;2023-02-15T03:06:56;102208.69;;;-0.27;100.00
48553;BME280;34335;51.566;6.994;2023-02-15T03:09:45;102205.03;;;-0.30;100.00
48553;BME280;34335;51.566;6.994;2023-02-15T03:12:16;102205.47;;;-0.24;100.00
48553;BME280;34335;51.566;6.994;2023-02-15T03:14:45;102206.66;;;-0.19;100.00
48553;BME280;34335;51.566;6.994;2023-02-15T03:17:14;102203.53;;;-0.15;100.00
48553;BME280;34335;51.566;6.994;2023-02-15T03:19:40;102198.75;;;-0.22;100.00
48553;BME280;34335;51.566;6.994;2023-02-15T03:22:18;102195.25;;;-0.24;100.00
48553;BME280;34335;51.566;6.994;2023-02-15T03:25:04;102198.94;;;-0.33;100.00
48553;BME280;34335;51.566;6.994;2023-02-15T03:27:35;102203.72;;;-0.37;100.00
48553;BME280;34335;51.566;6.994;2023-02-15T03:30:03;102191.41;;;-0.43;100.00
48553;BME280;34335;51.566;6.994;2023-02-15T03:32:32;102196.91;;;0.14;100.00
48553;BME280;34335;51.566;6.994;2023-02-15T03:34:58;102197.88;;;0.29;100.00
48553;BME280;34335;51.566;6.994;2023-02-15T03:37:53;102198.16;;;0.21;100.00
48553;BME280;34335;51.566;6.994;2023-02-15T03:40:34;102199.69;;;-0.08;100.00
48553;BME280;34335;51.566;6.994;2023-02-15T03:44:18;102198.53;;;0.00;100.00
48553;BME280;34335;51.566;6.994;2023-02-15T03:46:32;102203.16;;;-0.08;100.00
48553;BME280;34335;51.566;6.994;2023-02-15T03:49:08;102201.53;;;-0.44;100.00
48553;BME280;34335;51.566;6.994;2023-02-15T03:51:38;102199.28;;;-0.53;100.00
48553;BME280;34335;51.566;6.994;2023-02-15T03:54:26;102195.03;;;-0.53;100.00
48553;BME280;34335;51.566;6.994;2023-02-15T03:57:28;102192.16;;;-0.57;100.00
48553;BME280;34335;51.566;6.994;2023-02-15T04:00:19;102193.81;;;-0.33;100.00
48553;BME280;34335;51.566;6.994;2023-02-15T04:05:35;102188.66;;;-0.21;100.00
48553;BME280;34335;51.566;6.994;2023-02-15T04:08:01;102177.13;;;-0.14;100.00
48553;BME280;34335;51.566;6.994;2023-02-15T04:10:27;102190.16;;;-0.61;100.00
48553;BME280;34335;51.566;6.994;2023-02-15T04:13:10;102190.94;;;-0.63;100.00
48553;BME280;34335;51.566;6.994;2023-02-15T04:15:36;102197.34;;;-0.44;100.00
48553;BME280;34335;51.566;6.994;2023-02-15T04:18:19;102198.00;;;-0.47;100.00
48553;BME280;34335;51.566;6.994;2023-02-15T04:20:46;102186.34;;;-0.29;100.00
48553;BME280;34335;51.566;6.994;2023-02-15T04:23:30;102187.50;;;-0.38;100.00
48553;BME280;34335;51.566;6.994;2023-02-15T04:26:14;102187.69;;;-0.09;100.00
48553;BME280;34335;51.566;6.994;2023-02-15T04:28:39;102190.13;;;-0.50;100.00
48553;BME280;34335;51.566;6.994;2023-02-15T04:31:05;102181.22;;;-0.80;100.00
48553;BME280;34335;51.566;6.994;2023-02-15T04:33:30;102187.97;;;-0.69;100.00
48553;BME280;34335;51.566;6.994;2023-02-15T04:35:55;102183.91;;;-0.79;100.00
48553;BME280;34335;51.566;6.994;2023-02-15T04:38:21;102184.38;;;-0.84;100.00
48553;BME280;34335;51.566;6.994;2023-02-15T04:40:51;102184.16;;;-0.87;100.00
48553;BME280;34335;51.566;6.994;2023-02-15T04:43:18;102177.22;;;-1.02;100.00
48553;BME280;34335;51.566;6.994;2023-02-15T04:45:48;102177.00;;;-1.05;100.00
48553;BME280;34335;51.566;6.994;2023-02-15T04:48:14;102181.19;;;-0.43;100.00
48553;BME280;34335;51.566;6.994;2023-02-15T04:50:39;102178.66;;;-0.68;100.00
48553;BME280;34335;51.566;6.994;2023-02-15T04:53:04;102174.84;;;-0.99;100.00
48553;BME280;34335;51.566;6.994;2023-02-15T04:55:30;102172.56;;;-1.07;100.00
48553;BME280;34335;51.566;6.994;2023-02-15T04:57:55;102180.28;;;-0.82;100.00
48553;BME280;34335;51.566;6.994;2023-02-15T05:00:20;102167.22;;;-1.11;100.00
48553;BME280;34335;51.566;6.994;2023-02-15T05:02:46;102167.59;;;-1.18;100.00
48553;BME280;34335;51.566;6.994;2023-02-15T05:05:11;102181.66;;;-1.23;100.00
48553;BME280;34335;51.566;6.994;2023-02-15T05:07:38;102170.81;;;-1.20;100.00
48553;BME280;34335;51.566;6.994;2023-02-15T05:10:03;102177.16;;;-1.27;100.00
48553;BME280;34335;51.566;6.994;2023-02-15T05:12:28;102162.59;;;-1.28;100.00
48553;BME280;34335;51.566;6.994;2023-02-15T05:14:54;102164.94;;;-1.31;100.00
48553;BME280;34335;51.566;6.994;2023-02-15T05:17:19;102163.97;;;-0.45;100.00
48553;BME280;34335;51.566;6.994;2023-02-15T05:19:44;102156.00;;;-0.50;100.00
48553;BME280;34335;51.566;6.994;2023-02-15T05:22:10;102155.19;;;-1.00;100.00
48553;BME280;34335;51.566;6.994;2023-02-15T05:24:35;102152.72;;;-1.23;100.00
48553;BME280;34335;51.566;6.994;2023-02-15T05:27:19;102150.16;;;-1.23;100.00
48553;BME280;34335;51.566;6.994;2023-02-15T05:30:03;102156.91;;;-0.75;100.00
48553;BME280;34335;51.566;6.994;2023-02-15T05:32:28;102151.56;;;-0.78;100.00
48553;BME280;34335;51.566;6.994;2023-02-15T05:34:53;102154.44;;;-0.73;100.00
48553;BME280;34335;51.566;6.994;2023-02-15T05:37:19;102151.44;;;-0.68;100.00
48553;BME280;34335;51.566;6.994;2023-02-15T05:39:44;102146.06;;;-0.84;100.00
48553;BME280;34335;51.566;6.994;2023-02-15T05:42:09;102140.22;;;-1.07;100.00
48553;BME280;34335;51.566;6.994;2023-02-15T05:44:34;102142.38;;;-1.13;100.00
48553;BME280;34335;51.566;6.994;2023-02-15T05:47:00;102138.03;;;-1.14;100.00
48553;BME280;34335;51.566;6.994;2023-02-15T05:49:27;102135.84;;;-0.96;100.00
48553;BME280;34335;51.566;6.994;2023-02-15T05:51:53;102124.06;;;-0.82;100.00
48553;BME280;34335;51.566;6.994;2023-02-15T05:54:18;102130.94;;;-1.06;100.00
48553;BME280;34335;51.566;6.994;2023-02-15T05:56:43;102136.75;;;-0.96;100.00
48553;BME280;34335;51.566;6.994;2023-02-15T05:59:09;102130.50;;;-0.87;100.00
48553;BME280;34335;51.566;6.994;2023-02-15T06:01:34;102134.84;;;-0.86;100.00
48553;BME280;34335;51.566;6.994;2023-02-15T06:03:59;102132.91;;;-1.02;100.00
48553;BME280;34335;51.566;6.994;2023-02-15T06:06:25;102134.22;;;-0.70;100.00
48553;BME280;34335;51.566;6.994;2023-02-15T06:08:50;102131.84;;;-0.42;100.00
48553;BME280;34335;51.566;6.994;2023-02-15T06:11:15;102140.56;;;-0.26;100.00
48553;BME280;34335;51.566;6.994;2023-02-15T06:13:40;102140.97;;;-0.45;100.00
48553;BME280;34335;51.566;6.994;2023-02-15T06:16:06;102148.38;;;-0.37;100.00
48553;BME280;34335;51.566;6.994;2023-02-15T06:18:32;102139.31;;;-0.96;100.00
48553;BME280;34335;51.566;6.994;2023-02-15T06:20:57;102147.78;;;-0.46;100.00
48553;BME280;34335;51.566;6.994;2023-02-15T06:23:22;102146.25;;;-0.81;100.00
48553;BME280;34335;51.566;6.994;2023-02-15T06:25:47;102143.06;;;-1.16;100.00
48553;BME280;34335;51.566;6.994;2023-02-15T06:28:13;102140.63;;;-1.38;100.00
48553;BME280;34335;51.566;6.994;2023-02-15T06:30:39;102142.28;;;-1.27;100.00
48553;BME280;34335;51.566;6.994;2023-02-15T06:33:04;102146.16;;;-1.20;100.00
48553;BME280;34335;51.566;6.994;2023-02-15T06:35:30;102141.75;;;-0.72;100.00
48553;BME280;34335;51.566;6.994;2023-02-15T06:37:55;102145.44;;;-0.93;100.00
48553;BME280;34335;51.566;6.994;2023-02-15T06:40:20;102148.63;;;-0.96;100.00
48553;BME280;34335;51.566;6.994;2023-02-15T06:42:45;102148.75;;;-0.95;100.00
48553;BME280;34335;51.566;6.994;2023-02-15T06:45:11;102146.56;;;-1.14;100.00
48553;BME280;34335;51.566;6.994;2023-02-15T06:47:37;102150.31;;;-0.97;100.00
48553;BME280;34335;51.566;6.994;2023-02-15T06:50:03;102154.31;;;-1.00;100.00
48553;BME280;34335;51.566;6.994;2023-02-15T06:52:29;102152.84;;;-1.34;100.00
48553;BME280;34335;51.566;6.994;2023-02-15T06:54:54;102152.41;;;-1.52;100.00
48553;BME280;34335;51.566;6.994;2023-02-15T06:57:20;102152.63;;;-1.49;100.00
48553;BME280;34335;51.566;6.994;2023-02-15T06:59:45;102150.41;;;-0.95;100.00
48553;BME280;34335;51.566;6.994;2023-02-15T07:02:11;102153.53;;;-0.99;100.00
48553;BME280;34335;51.566;6.994;2023-02-15T07:04:37;102161.72;;;-1.41;100.00
48553;BME280;34335;51.566;6.994;2023-02-15T07:07:02;102153.88;;;-0.95;100.00
48553;BME280;34335;51.566;6.994;2023-02-15T07:09:28;102156.47;;;-0.81;100.00
48553;BME280;34335;51.566;6.994;2023-02-15T07:11:53;102149.25;;;-0.75;100.00
48553;BME280;34335;51.566;6.994;2023-02-15T07:14:37;102151.00;;;-0.99;100.00
48553;BME280;34335;51.566;6.994;2023-02-15T07:17:02;102149.66;;;-0.69;100.00
48553;BME280;34335;51.566;6.994;2023-02-15T07:19:27;102152.97;;;-0.58;100.00
48553;BME280;34335;51.566;6.994;2023-02-15T07:21:53;102146.25;;;-0.81;100.00
48553;BME280;34335;51.566;6.994;2023-02-15T07:24:18;102147.28;;;-1.28;100.00
48553;BME280;34335;51.566;6.994;2023-02-15T07:26:43;102139.81;;;-1.13;100.00
48553;BME280;34335;51.566;6.994;2023-02-15T07:29:08;102143.53;;;-0.71;100.00
48553;BME280;34335;51.566;6.994;2023-02-15T07:31:34;102139.50;;;-0.42;100.00
48553;BME280;34335;51.566;6.994;2023-02-15T07:33:59;102137.25;;;-0.51;100.00
48553;BME280;34335;51.566;6.994;2023-02-15T07:36:24;102136.00;;;-0.95;100.00
48553;BME280;34335;51.566;6.994;2023-02-15T07:38:49;102126.19;;;-1.26;100.00
48553;BME280;34335;51.566;6.994;2023-02-15T07:41:15;102119.16;;;-1.16;100.00
48553;BME280;34335;51.566;6.994;2023-02-15T07:43:42;102109.66;;;-0.93;100.00
48553;BME280;34335;51.566;6.994;2023-02-15T07:46:14;102108.13;;;-0.53;100.00
48553;BME280;34335;51.566;6.994;2023-02-15T07:48:41;102108.31;;;-0.24;100.00
48553;BME280;34335;51.566;6.994;2023-02-15T07:51:08;102110.72;;;-0.39;100.00
48553;BME280;34335;51.566;6.994;2023-02-15T07:53:35;102094.53;;;0.01;100.00
48553;BME280;34335;51.566;6.994;2023-02-15T07:56:01;102094.72;;;0.17;100.00
48553;BME280;34335;51.566;6.994;2023-02-15T07:58:27;102094.34;;;-0.16;100.00
48553;BME280;34335;51.566;6.994;2023-02-15T08:01:13;102094.72;;;-0.10;100.00
48553;BME280;34335;51.566;6.994;2023-02-15T08:03:39;102092.56;;;-0.17;100.00
48553;BME280;34335;51.566;6.994;2023-02-15T08:06:05;102092.44;;;-0.19;100.00
48553;BME280;34335;51.566;6.994;2023-02-15T08:08:30;102098.38;;;0.07;100.00
48553;BME280;34335;51.566;6.994;2023-02-15T08:11:03;102088.34;;;0.37;100.00
48553;BME280;34335;51.566;6.994;2023-02-15T08:13:49;102090.78;;;0.36;100.00
48553;BME280;34335;51.566;6.994;2023-02-15T08:18:54;102084.59;;;0.74;100.00
48553;BME280;34335;51.566;6.994;2023-02-15T08:21:20;102090.56;;;0.59;100.00
48553;BME280;34335;51.566;6.994;2023-02-15T08:23:46;102086.66;;;0.80;100.00
48553;BME280;34335;51.566;6.994;2023-02-15T08:26:12;102074.28;;;1.01;100.00
48553;BME280;34335;51.566;6.994;2023-02-15T08:28:37;102077.56;;;1.13;100.00
48553;BME280;34335;51.566;6.994;2023-02-15T08:31:07;102069.06;;;1.14;100.00
48553;BME280;34335;51.566;6.994;2023-02-15T08:33:34;102072.72;;;1.33;100.00
48553;BME280;34335;51.566;6.994;2023-02-15T08:36:08;102066.81;;;1.64;100.00
48553;BME280;34335;51.566;6.994;2023-02-15T08:38:33;102066.75;;;1.77;100.00
48553;BME280;34335;51.566;6.994;2023-02-15T08:41:16;102066.88;;;1.95;100.00
48553;BME280;34335;51.566;6.994;2023-02-15T08:43:42;102065.53;;;2.02;100.00
48553;BME280;34335;51.566;6.994;2023-02-15T08:46:09;102065.00;;;2.08;100.00
48553;BME280;34335;51.566;6.994;2023-02-15T08:48:34;102065.34;;;2.14;100.00
48553;BME280;34335;51.566;6.994;2023-02-15T08:51:05;102069.00;;;2.34;100.00
48553;BME280;34335;51.566;6.994;2023-02-15T08:53:31;102057.47;;;2.11;100.00
48553;BME280;34335;51.566;6.994;2023-02-15T08:55:57;102066.00;;;2.58;100.00
48553;BME280;34335;51.566;6.994;2023-02-15T08:58:23;102057.81;;;2.65;100.00
48553;BME280;34335;51.566;6.994;2023-02-15T09:00:48;102064.16;;;2.55;100.00
48553;BME280;34335;51.566;6.994;2023-02-15T09:03:14;102053.09;;;2.73;100.00
48553;BME280;34335;51.566;6.994;2023-02-15T09:05:39;102054.69;;;2.54;100.00
48553;BME280;34335;51.566;6.994;2023-02-15T09:08:04;102059.25;;;2.43;100.00
48553;BME280;34335;51.566;6.994;2023-02-15T09:10:30;102053.97;;;2.90;100.00
48553;BME280;34335;51.566;6.994;2023-02-15T09:12:55;102045.56;;;3.27;100.00
48553;BME280;34335;51.566;6.994;2023-02-15T09:15:20;102039.88;;;3.33;100.00
48553;BME280;34335;51.566;6.994;2023-02-15T09:17:46;102039.53;;;3.43;100.00
48553;BME280;34335;51.566;6.994;2023-02-15T09:20:11;102043.44;;;3.71;100.00
48553;BME280;34335;51.566;6.994;2023-02-15T09:22:37;102042.72;;;3.92;100.00
48553;BME280;34335;51.566;6.994;2023-02-15T09:25:02;102038.75;;;3.80;100.00
48553;BME280;34335;51.566;6.994;2023-02-15T09:27:29;102045.06;;;4.05;100.00
48553;BME280;34335;51.566;6.994;2023-02-15T09:29:54;102045.34;;;3.93;100.00
48553;BME280;34335;51.566;6.994;2023-02-15T09:32:19;102051.03;;;4.42;100.00
48553;BME280;34335;51.566;6.994;2023-02-15T09:34:45;102050.63;;;4.32;100.00
48553;BME280;34335;51.566;6.994;2023-02-15T09:37:10;102042.06;;;4.51;100.00
48553;BME280;34335;51.566;6.994;2023-02-15T09:39:37;102037.38;;;4.62;100.00
48553;BME280;34335;51.566;6.994;2023-02-15T09:48:02;102048.28;;;5.15;100.00
48553;BME280;34335;51.566;6.994;2023-02-15T09:50:54;102050.06;;;5.59;100.00
48553;BME280;34335;51.566;6.994;2023-02-15T10:15:23;102051.22;;;7.02;100.00
48553;BME280;34335;51.566;6.994;2023-02-15T10:24:03;102038.16;;;7.49;100.00
48553;BME280;34335;51.566;6.994;2023-02-15T10:26:44;102033.09;;;7.79;100.00
48553;BME280;34335;51.566;6.994;2023-02-15T10:29:34;102031.75;;;7.38;100.00
48553;BME280;34335;51.566;6.994;2023-02-15T10:32:31;102022.72;;;8.07;100.00
48553;BME280;34335;51.566;6.994;2023-02-15T10:35:05;102027.78;;;8.33;100.00
48553;BME280;34335;51.566;6.994;2023-02-15T10:40:28;102018.13;;;8.27;100.00
48553;BME280;34335;51.566;6.994;2023-02-15T10:51:38;102015.50;;;9.20;100.00
48553;BME280;34335;51.566;6.994;2023-02-15T10:54:30;102012.63;;;9.44;100.00
48553;BME280;34335;51.566;6.994;2023-02-15T10:57:08;102016.06;;;9.78;100.00
48553;BME280;34335;51.566;6.994;2023-02-15T10:59:59;102004.66;;;9.73;99.29
48553;BME280;34335;51.566;6.994;2023-02-15T11:02:45;102011.91;;;9.87;100.00
48553;BME280;34335;51.566;6.994;2023-02-15T11:08:06;102009.28;;;10.25;97.73
48553;BME280;34335;51.566;6.994;2023-02-15T11:10:38;102011.00;;;10.24;94.74
48553;BME280;34335;51.566;6.994;2023-02-15T11:13:14;102002.66;;;10.38;97.17
48553;BME280;34335;51.566;6.994;2023-02-15T11:18:21;102010.00;;;10.59;89.91
48553;BME280;34335;51.566;6.994;2023-02-15T11:23:24;102002.00;;;10.94;85.10
48553;BME280;34335;51.566;6.994;2023-02-15T11:25:58;102004.19;;;10.72;80.33
48553;BME280;34335;51.566;6.994;2023-02-15T11:28:34;102004.28;;;11.25;94.25
48553;BME280;34335;51.566;6.994;2023-02-15T11:31:12;101996.31;;;11.15;82.31
48553;BME280;34335;51.566;6.994;2023-02-15T11:33:40;101994.69;;;11.23;81.99
48553;BME280;34335;51.566;6.994;2023-02-15T11:38:37;101995.00;;;11.42;85.01
48553;BME280;34335;51.566;6.994;2023-02-15T11:41:14;101993.66;;;11.69;78.14
48553;BME280;34335;51.566;6.994;2023-02-15T11:43:47;101994.56;;;11.71;75.67
48553;BME280;34335;51.566;6.994;2023-02-15T11:46:16;101992.09;;;11.80;71.88
48553;BME280;34335;51.566;6.994;2023-02-15T11:48:43;101981.91;;;11.96;81.02
48553;BME280;34335;51.566;6.994;2023-02-15T11:51:12;101981.72;;;11.82;74.98
48553;BME280;34335;51.566;6.994;2023-02-15T11:53:38;101976.56;;;11.87;74.21
48553;BME280;34335;51.566;6.994;2023-02-15T11:56:04;101979.97;;;11.82;71.60
48553;BME280;34335;51.566;6.994;2023-02-15T11:58:45;101979.25;;;11.93;72.33
48553;BME280;34335;51.566;6.994;2023-02-15T12:01:29;101976.28;;;12.29;85.78
48553;BME280;34335;51.566;6.994;2023-02-15T12:06:55;101963.00;;;12.88;97.12
48553;BME280;34335;51.566;6.994;2023-02-15T12:09:45;101975.28;;;13.00;70.89
48553;BME280;34335;51.566;6.994;2023-02-15T12:14:53;101964.84;;;13.00;78.34
48553;BME280;34335;51.566;6.994;2023-02-15T12:17:22;101953.78;;;13.33;99.14
48553;BME280;34335;51.566;6.994;2023-02-15T12:19:50;101951.84;;;13.06;72.05
48553;BME280;34335;51.566;6.994;2023-02-15T12:22:27;101952.94;;;13.31;72.21
48553;BME280;34335;51.566;6.994;2023-02-15T12:24:55;101945.84;;;12.28;70.73
48553;BME280;34335;51.566;6.994;2023-02-15T12:27:25;101949.13;;;12.93;76.73
48553;BME280;34335;51.566;6.994;2023-02-15T12:29:55;101941.06;;;12.70;65.81
48553;BME280;34335;51.566;6.994;2023-02-15T12:32:49;101932.41;;;12.71;65.14
48553;BME280;34335;51.566;6.994;2023-02-15T12:35:29;101942.97;;;12.07;63.81
48553;BME280;34335;51.566;6.994;2023-02-15T12:38:43;101940.25;;;12.76;65.25
48553;BME280;34335;51.566;6.994;2023-02-15T12:40:57;101934.16;;;13.88;80.45
48553;BME280;34335;51.566;6.994;2023-02-15T12:43:29;101934.47;;;13.08;61.93
48553;BME280;34335;51.566;6.994;2023-02-15T12:46:22;101925.59;;;12.90;60.96
48553;BME280;34335;51.566;6.994;2023-02-15T12:51:50;101928.63;;;13.40;59.45
48553;BME280;34335;51.566;6.994;2023-02-15T12:54:21;101923.75;;;14.08;59.14
48553;BME280;34335;51.566;6.994;2023-02-15T12:56:51;101921.94;;;13.89;63.88
48553;BME280;34335;51.566;6.994;2023-02-15T12:59:17;101903.91;;;14.83;67.24
48553;BME280;34335;51.566;6.994;2023-02-15T13:01:46;101909.84;;;15.92;63.81
48553;BME280;34335;51.566;6.994;2023-02-15T13:04:22;101911.66;;;15.65;59.52
48553;BME280;34335;51.566;6.994;2023-02-15T13:06:52;101903.91;;;15.11;54.44
48553;BME280;34335;51.566;6.994;2023-02-15T13:11:56;101912.63;;;14.67;52.80
48553;BME280;34335;51.566;6.994;2023-02-15T13:14:29;101904.50;;;16.18;60.01
48553;BME280;34335;51.566;6.994;2023-02-15T13:16:58;101904.69;;;15.63;52.53
48553;BME280;34335;51.566;6.994;2023-02-15T13:19:33;101901.25;;;15.33;58.78
48553;BME280;34335;51.566;6.994;2023-02-15T13:22:06;101888.53;;;16.52;68.34
48553;BME280;34335;51.566;6.994;2023-02-15T13:24:36;101886.25;;;15.91;55.43
48553;BME280;34335;51.566;6.994;2023-02-15T13:27:04;101891.38;;;16.12;56.84
48553;BME280;34335;51.566;6.994;2023-02-15T13:29:33;101895.94;;;15.57;55.56
48553;BME280;34335;51.566;6.994;2023-02-15T13:32:07;101889.91;;;14.96;50.20
48553;BME280;34335;51.566;6.994;2023-02-15T13:34:37;101874.47;;;16.61;58.23
48553;BME280;34335;51.566;6.994;2023-02-15T13:39:34;101863.25;;;17.40;68.09
48553;BME280;34335;51.566;6.994;2023-02-15T13:42:25;101851.19;;;17.97;49.05
48553;BME280;34335;51.566;6.994;2023-02-15T13:50:45;101851.75;;;18.19;51.36
48553;BME280;34335;51.566;6.994;2023-02-15T13:53:29;101848.53;;;16.12;50.16
48553;BME280;34335;51.566;6.994;2023-02-15T13:56:02;101855.44;;;16.30;45.51
48553;BME280;34335;51.566;6.994;2023-02-15T14:01:10;101850.28;;;17.25;45.73
48553;BME280;34335;51.566;6.994;2023-02-15T14:06:45;101846.06;;;17.07;41.69
48553;BME280;34335;51.566;6.994;2023-02-15T14:12:12;101846.09;;;15.67;43.91
48553;BME280;34335;51.566;6.994;2023-02-15T14:15:21;101836.34;;;16.01;44.52
48553;BME280;34335;51.566;6.994;2023-02-15T14:17:59;101851.38;;;15.61;44.94
48553;BME280;34335;51.566;6.994;2023-02-15T14:20:55;101842.34;;;16.24;47.47
48553;BME280;34335;51.566;6.994;2023-02-15T14:26:11;101847.03;;;15.47;48.30
48553;BME280;34335;51.566;6.994;2023-02-15T14:31:52;101841.69;;;17.06;45.47
48553;BME280;34335;51.566;6.994;2023-02-15T14:34:29;101843.53;;;15.50;44.96
48553;BME280;34335;51.566;6.994;2023-02-15T14:36:57;101846.22;;;15.17;45.30
48553;BME280;34335;51.566;6.994;2023-02-15T14:39:29;101842.56;;;15.72;46.16
48553;BME280;34335;51.566;6.994;2023-02-15T14:42:24;101843.66;;;14.78;46.41
48553;BME280;34335;51.566;6.994;2023-02-15T14:45:05;101834.88;;;15.18;50.58
48553;BME280;34335;51.566;6.994;2023-02-15T14:47:43;101826.69;;;16.05;49.02
48553;BME280;34335;51.566;6.994;2023-02-15T14:50:39;101825.06;;;15.85;47.31